createdAt,value
2022-12-08T00:00:03.312Z,30.3280
2022-12-08T00:00:14.539Z,30.3120
2022-12-08T00:00:25.614Z,30.3280
2022-12-08T00:00:36.688Z,30.3280
2022-12-08T00:00:47.792Z,30.3280
2022-12-08T00:00:58.989Z,30.3220
2022-12-08T00:01:10.059Z,30.3280
2022-12-08T00:01:21.409Z,30.3280
2022-12-08T00:01:32.600Z,30.3440
2022-12-08T00:01:44.037Z,30.3330
2022-12-08T00:01:55.523Z,30.3550
2022-12-08T00:02:07.079Z,30.3440
2022-12-08T00:02:18.537Z,30.3390
2022-12-08T00:02:30.119Z,30.3550
2022-12-08T00:02:41.535Z,30.3660
2022-12-08T00:02:52.844Z,30.3440
2022-12-08T00:03:04.301Z,30.3550
2022-12-08T00:03:15.906Z,30.3930
2022-12-08T00:03:27.359Z,30.4370
2022-12-08T00:03:38.737Z,30.4580
2022-12-08T00:03:49.876Z,30.4810
2022-12-08T00:04:00.942Z,30.4650
2022-12-08T00:04:12.013Z,30.4320
2022-12-08T00:04:23.157Z,30.4370
2022-12-08T00:04:34.353Z,30.4270
2022-12-08T00:04:45.539Z,30.4270
2022-12-08T00:04:56.754Z,30.4270
2022-12-08T00:05:07.828Z,30.4050
2022-12-08T00:05:18.946Z,30.4100
2022-12-08T00:05:30.030Z,30.4050
2022-12-08T00:05:41.234Z,30.3930
2022-12-08T00:05:52.302Z,30.3870
2022-12-08T00:06:03.367Z,30.3790
2022-12-08T00:06:14.429Z,30.3900
2022-12-08T00:06:25.499Z,30.3690
2022-12-08T00:06:36.589Z,30.3710
2022-12-08T00:06:47.790Z,30.3870
2022-12-08T00:06:58.994Z,30.3930
2022-12-08T00:07:10.210Z,30.3770
2022-12-08T00:07:21.258Z,30.3770
2022-12-08T00:07:32.335Z,30.3600
2022-12-08T00:07:43.526Z,30.3710
2022-12-08T00:07:54.754Z,30.3820
2022-12-08T00:08:05.935Z,30.3820
2022-12-08T00:08:17.135Z,30.3600
2022-12-08T00:08:28.346Z,30.3550
2022-12-08T00:08:39.455Z,30.3640
2022-12-08T00:08:50.554Z,30.3390
2022-12-08T00:09:01.629Z,30.3170
2022-12-08T00:09:12.741Z,30.3060
2022-12-08T00:09:23.915Z,30.3120
2022-12-08T00:09:39.033Z,30.3060
2022-12-08T00:09:50.882Z,30.4320
2022-12-08T00:10:14.329Z,30.4020
2022-12-08T00:10:47.232Z,30.4740
2022-12-08T00:10:51.275Z,30.5430
2022-12-08T00:10:52.958Z,30.5790
2022-12-08T00:11:04.098Z,30.4950
2022-12-08T00:11:15.312Z,30.4210
2022-12-08T00:11:26.510Z,30.3670
2022-12-08T00:11:37.586Z,30.3560
2022-12-08T00:11:48.648Z,30.3200
2022-12-08T00:11:59.804Z,30.2760
2022-12-08T00:12:10.894Z,30.2550
2022-12-08T00:12:21.959Z,30.1940
2022-12-08T00:12:33.017Z,30.1670
2022-12-08T00:12:44.085Z,30.1330
2022-12-08T00:12:55.151Z,30.1500
2022-12-08T00:13:06.350Z,30.1560
2022-12-08T00:13:17.539Z,30.1560
2022-12-08T00:13:28.751Z,30.1770
2022-12-08T00:13:39.810Z,30.1770
2022-12-08T00:13:50.864Z,30.1670
2022-12-08T00:14:02.035Z,30.1670
2022-12-08T00:14:13.232Z,30.1720
2022-12-08T00:14:24.429Z,30.1610
2022-12-08T00:14:35.631Z,30.1500
2022-12-08T00:14:46.836Z,30.1400
2022-12-08T00:14:58.031Z,30.1270
2022-12-08T00:15:09.229Z,30.1270
2022-12-08T00:15:20.577Z,30.1220
2022-12-08T00:15:31.631Z,30.1170
2022-12-08T00:15:42.854Z,30.1110
2022-12-08T00:15:53.937Z,30.0950
2022-12-08T00:16:05.110Z,30.0950
2022-12-08T00:16:16.252Z,30.0950
2022-12-08T00:16:27.423Z,30.0730
2022-12-08T00:16:38.528Z,30.0680
2022-12-08T00:16:49.807Z,30.0130
2022-12-08T00:17:00.951Z,29.9580
2022-12-08T00:17:12.114Z,29.9300
2022-12-08T00:17:23.340Z,29.9380
2022-12-08T00:17:34.592Z,29.9490
2022-12-08T00:17:45.688Z,29.9420
2022-12-08T00:17:56.740Z,29.9440
2022-12-08T00:18:07.808Z,29.9440
2022-12-08T00:18:18.898Z,29.9280
2022-12-08T00:18:29.978Z,29.9220
2022-12-08T00:18:41.058Z,29.9110
2022-12-08T00:18:52.270Z,29.9060
2022-12-08T00:19:03.469Z,29.9110
2022-12-08T00:19:14.672Z,29.8880
2022-12-08T00:19:25.869Z,29.8880
2022-12-08T00:19:37.074Z,29.8670
2022-12-08T00:19:48.259Z,29.8940
2022-12-08T00:19:59.471Z,29.8990
2022-12-08T00:20:10.544Z,29.9060
2022-12-08T00:20:21.631Z,29.8830
2022-12-08T00:20:32.752Z,29.8830
2022-12-08T00:20:43.951Z,29.8670
2022-12-08T00:20:55.149Z,29.8720
2022-12-08T00:21:06.362Z,29.8400
2022-12-08T00:21:17.549Z,29.8340
2022-12-08T00:21:28.752Z,29.7950
2022-12-08T00:21:39.818Z,29.7740
2022-12-08T00:21:50.897Z,29.7720
2022-12-08T00:22:02.029Z,29.8050
2022-12-08T00:22:13.069Z,29.8050
2022-12-08T00:22:24.166Z,29.7890
2022-12-08T00:22:35.313Z,29.7990
2022-12-08T00:22:46.378Z,29.8050
2022-12-08T00:22:57.464Z,29.8050
2022-12-08T00:23:08.491Z,29.8050
2022-12-08T00:23:19.551Z,29.7940
2022-12-08T00:23:30.669Z,29.7720
2022-12-08T00:23:41.871Z,29.7610
2022-12-08T00:23:52.930Z,29.7670
2022-12-08T00:24:04.014Z,29.7780
2022-12-08T00:24:15.151Z,29.7830
2022-12-08T00:24:26.221Z,29.7780
2022-12-08T00:24:37.289Z,29.7610
2022-12-08T00:24:48.430Z,29.7670
2022-12-08T00:24:59.510Z,29.7720
2022-12-08T00:25:10.598Z,29.7670
2022-12-08T00:25:21.758Z,29.7400
2022-12-08T00:25:32.909Z,29.7280
2022-12-08T00:25:44.098Z,29.7400
2022-12-08T00:25:55.311Z,29.7400
2022-12-08T00:26:06.376Z,29.7220
2022-12-08T00:26:17.454Z,29.7060
2022-12-08T00:26:28.592Z,29.6960
2022-12-08T00:26:39.631Z,29.7170
2022-12-08T00:26:50.752Z,29.7220
2022-12-08T00:27:01.877Z,29.7050
2022-12-08T00:27:12.928Z,29.7280
2022-12-08T00:27:23.996Z,29.7610
2022-12-08T00:27:35.149Z,29.7720
2022-12-08T00:27:46.189Z,29.7830
2022-12-08T00:27:57.237Z,29.7670
2022-12-08T00:28:08.432Z,29.7610
2022-12-08T00:28:19.629Z,29.7670
2022-12-08T00:28:30.704Z,29.7610
2022-12-08T00:28:41.775Z,29.7560
2022-12-08T00:28:52.850Z,29.7510
2022-12-08T00:29:03.925Z,29.7400
2022-12-08T00:29:17.582Z,29.7330
2022-12-08T00:29:29.149Z,29.7870
2022-12-08T00:29:40.274Z,29.7640
2022-12-08T00:29:51.471Z,29.7480
2022-12-08T00:30:02.671Z,29.7270
2022-12-08T00:30:13.858Z,29.7270
2022-12-08T00:30:24.985Z,29.7270
2022-12-08T00:30:36.057Z,29.7210
2022-12-08T00:30:47.152Z,29.7010
2022-12-08T00:30:58.338Z,29.6900
2022-12-08T00:31:09.535Z,29.6790
2022-12-08T00:31:20.796Z,29.6850
2022-12-08T00:31:31.933Z,29.7010
2022-12-08T00:31:43.163Z,29.7010
2022-12-08T00:31:54.457Z,29.7120
2022-12-08T00:32:05.730Z,29.7100
2022-12-08T00:32:16.889Z,29.7100
2022-12-08T00:32:27.937Z,29.7100
2022-12-08T00:32:39.154Z,29.6780
2022-12-08T00:32:50.218Z,29.6710
2022-12-08T00:33:01.295Z,29.6550
2022-12-08T00:33:12.421Z,29.6660
2022-12-08T00:33:23.638Z,29.6500
2022-12-08T00:33:34.698Z,29.6340
2022-12-08T00:33:45.775Z,29.6470
2022-12-08T00:33:56.909Z,29.6470
2022-12-08T00:34:08.111Z,29.6740
2022-12-08T00:34:19.299Z,29.6830
2022-12-08T00:34:30.509Z,29.6940
2022-12-08T00:34:41.708Z,29.6780
2022-12-08T00:34:52.913Z,29.6940
2022-12-08T00:35:04.552Z,29.6990
2022-12-08T00:35:15.988Z,29.7480
2022-12-08T00:35:27.118Z,29.7430
2022-12-08T00:35:42.869Z,29.7320
2022-12-08T00:35:55.294Z,29.8460
2022-12-08T00:36:06.511Z,29.8060
2022-12-08T00:36:17.714Z,29.7570
2022-12-08T00:36:28.781Z,29.7270
2022-12-08T00:36:39.847Z,29.6990
2022-12-08T00:36:50.990Z,29.6890
2022-12-08T00:37:02.192Z,29.6830
2022-12-08T00:37:13.392Z,29.6940
2022-12-08T00:37:24.590Z,29.6600
2022-12-08T00:37:35.791Z,29.6660
2022-12-08T00:37:46.990Z,29.6600
2022-12-08T00:38:01.012Z,29.6390
2022-12-08T00:38:12.311Z,29.7210
2022-12-08T00:38:23.471Z,29.7020
2022-12-08T00:38:34.660Z,29.6910
2022-12-08T00:38:45.872Z,29.6910
2022-12-08T00:38:56.944Z,29.6860
2022-12-08T00:39:08.008Z,29.6810
2022-12-08T00:39:19.140Z,29.6710
2022-12-08T00:39:30.353Z,29.6600
2022-12-08T00:39:41.550Z,29.6640
2022-12-08T00:39:52.769Z,29.6700
2022-12-08T00:40:04.391Z,29.6750
2022-12-08T00:40:15.824Z,29.6970
2022-12-08T00:40:26.992Z,29.6860
2022-12-08T00:40:38.219Z,29.6640
2022-12-08T00:40:49.368Z,29.6750
2022-12-08T00:41:00.591Z,29.6700
2022-12-08T00:41:11.777Z,29.6640
2022-12-08T00:41:22.991Z,29.6480
2022-12-08T00:41:34.179Z,29.6590
2022-12-08T00:41:45.395Z,29.6540
2022-12-08T00:41:56.478Z,29.6640
2022-12-08T00:42:07.579Z,29.6590
2022-12-08T00:42:18.659Z,29.6700
2022-12-08T00:42:29.872Z,29.6480
2022-12-08T00:42:41.069Z,29.6640
2022-12-08T00:42:52.272Z,29.6810
2022-12-08T00:43:03.348Z,29.6910
2022-12-08T00:43:14.415Z,29.6860
2022-12-08T00:43:25.540Z,29.6750
2022-12-08T00:43:36.755Z,29.6710
2022-12-08T00:43:47.938Z,29.6910
2022-12-08T00:43:59.010Z,29.7160
2022-12-08T00:44:10.090Z,29.7140
2022-12-08T00:44:21.231Z,29.7300
2022-12-08T00:44:32.431Z,29.7360
2022-12-08T00:44:43.513Z,29.7470
2022-12-08T00:44:54.573Z,29.7470
2022-12-08T00:45:05.617Z,29.7410
2022-12-08T00:45:16.698Z,29.7140
2022-12-08T00:45:27.908Z,29.7300
2022-12-08T00:45:39.074Z,29.7360
2022-12-08T00:45:50.181Z,29.7410
2022-12-08T00:46:01.541Z,29.7360
2022-12-08T00:46:12.738Z,29.7300
2022-12-08T00:46:23.901Z,29.7300
2022-12-08T00:46:34.993Z,29.7140
2022-12-08T00:46:46.044Z,29.7250
2022-12-08T00:46:57.091Z,29.7380
2022-12-08T00:47:08.138Z,29.7490
2022-12-08T00:47:24.533Z,29.7660
2022-12-08T00:47:36.141Z,29.8920
2022-12-08T00:47:47.337Z,29.8560
2022-12-08T00:47:58.550Z,29.8190
2022-12-08T00:48:09.591Z,29.7880
2022-12-08T00:48:20.649Z,29.7550
2022-12-08T00:48:31.833Z,29.7430
2022-12-08T00:48:42.898Z,29.7610
2022-12-08T00:48:53.979Z,29.7820
2022-12-08T00:49:05.099Z,29.7880
2022-12-08T00:49:16.167Z,29.7880
2022-12-08T00:49:27.218Z,29.7880
2022-12-08T00:49:38.397Z,29.7880
2022-12-08T00:49:49.456Z,29.7990
2022-12-08T00:50:00.663Z,29.8040
2022-12-08T00:50:11.771Z,29.8150
2022-12-08T00:50:22.871Z,29.8040
2022-12-08T00:50:33.968Z,29.8150
2022-12-08T00:50:45.171Z,29.7820
2022-12-08T00:50:56.257Z,29.7550
2022-12-08T00:51:07.408Z,29.7630
2022-12-08T00:51:18.578Z,29.7410
2022-12-08T00:51:29.741Z,29.7520
2022-12-08T00:51:40.854Z,29.7630
2022-12-08T00:51:51.918Z,29.7730
2022-12-08T00:52:03.017Z,29.7840
2022-12-08T00:52:14.224Z,29.7790
2022-12-08T00:52:25.418Z,29.7730
2022-12-08T00:52:36.628Z,29.7790
2022-12-08T00:52:47.824Z,29.7730
2022-12-08T00:52:59.029Z,29.7570
2022-12-08T00:53:10.098Z,29.7610
2022-12-08T00:53:21.168Z,29.7610
2022-12-08T00:53:32.299Z,29.7720
2022-12-08T00:53:43.347Z,29.7720
2022-12-08T00:53:54.419Z,29.7930
2022-12-08T00:54:05.579Z,29.7880
2022-12-08T00:54:16.648Z,29.7820
2022-12-08T00:54:27.704Z,29.8040
2022-12-08T00:54:38.858Z,29.8100
2022-12-08T00:54:49.924Z,29.8470
2022-12-08T00:55:00.999Z,29.8420
2022-12-08T00:55:12.148Z,29.8420
2022-12-08T00:55:23.345Z,29.8470
2022-12-08T00:55:34.416Z,29.8310
2022-12-08T00:55:45.527Z,29.8420
2022-12-08T00:55:56.580Z,29.8420
2022-12-08T00:56:07.819Z,29.8540
2022-12-08T00:56:19.026Z,29.8590
2022-12-08T00:56:30.220Z,29.8860
2022-12-08T00:56:41.426Z,29.8650
2022-12-08T00:56:52.628Z,29.8650
2022-12-08T00:57:03.828Z,29.8700
2022-12-08T00:57:15.029Z,29.8650
2022-12-08T00:57:26.227Z,29.8810
2022-12-08T00:57:37.298Z,29.8860
2022-12-08T00:57:48.377Z,29.8810
2022-12-08T00:57:59.425Z,29.8750
2022-12-08T00:58:10.488Z,29.8750
2022-12-08T00:58:21.528Z,29.8650
2022-12-08T00:58:32.789Z,29.8590
2022-12-08T00:58:43.985Z,29.8810
2022-12-08T00:58:55.187Z,29.8860
2022-12-08T00:59:06.265Z,29.9030
2022-12-08T00:59:17.329Z,29.8700
2022-12-08T00:59:28.458Z,29.8540
2022-12-08T00:59:39.668Z,29.8700
2022-12-08T00:59:50.862Z,29.8860
2022-12-08T01:00:02.413Z,29.8920
2022-12-08T01:00:13.968Z,29.9230
2022-12-08T01:00:25.115Z,29.9060
2022-12-08T01:00:36.378Z,29.8960
2022-12-08T01:00:47.612Z,29.8900
2022-12-08T01:00:58.743Z,29.8860
2022-12-08T01:01:09.973Z,29.8920
2022-12-08T01:01:21.168Z,29.8860
2022-12-08T01:01:32.362Z,29.8670
2022-12-08T01:01:43.493Z,29.8460
2022-12-08T01:01:54.708Z,29.8620
2022-12-08T01:02:05.904Z,29.8960
2022-12-08T01:02:17.106Z,29.9120
2022-12-08T01:02:28.304Z,29.9170
2022-12-08T01:02:39.397Z,29.9230
2022-12-08T01:02:50.542Z,29.9230
2022-12-08T01:03:01.673Z,29.9280
2022-12-08T01:03:12.885Z,29.8960
2022-12-08T01:03:24.074Z,29.9060
2022-12-08T01:03:35.305Z,29.9280
2022-12-08T01:03:46.479Z,29.9550
2022-12-08T01:03:57.574Z,29.9500
2022-12-08T01:04:08.635Z,29.9400
2022-12-08T01:04:19.716Z,29.9300
2022-12-08T01:04:30.864Z,29.9190
2022-12-08T01:04:42.088Z,29.9460
2022-12-08T01:04:53.100Z,29.9460
2022-12-08T01:05:04.184Z,29.9520
2022-12-08T01:05:15.235Z,29.9400
2022-12-08T01:05:26.306Z,29.9520
2022-12-08T01:05:37.424Z,29.9690
2022-12-08T01:05:48.684Z,29.9630
2022-12-08T01:05:59.818Z,29.9850
2022-12-08T01:06:11.063Z,30.0000
2022-12-08T01:06:22.238Z,30.0050
2022-12-08T01:06:33.319Z,30.0000
2022-12-08T01:06:44.397Z,30.0050
2022-12-08T01:06:55.511Z,30.0100
2022-12-08T01:07:06.617Z,30.0050
2022-12-08T01:07:17.684Z,30.0160
2022-12-08T01:07:28.778Z,30.0160
2022-12-08T01:07:40.067Z,30.0120
2022-12-08T01:07:51.272Z,30.0120
2022-12-08T01:08:02.517Z,30.0430
2022-12-08T01:08:13.681Z,29.9940
2022-12-08T01:08:24.877Z,29.9550
2022-12-08T01:08:35.989Z,29.9600
2022-12-08T01:08:47.188Z,29.9660
2022-12-08T01:08:58.381Z,29.9940
2022-12-08T01:09:09.459Z,29.9820
2022-12-08T01:09:20.558Z,29.9660
2022-12-08T01:09:31.718Z,29.9710
2022-12-08T01:09:42.891Z,29.9770
2022-12-08T01:09:53.951Z,29.9600
2022-12-08T01:10:05.339Z,29.9890
2022-12-08T01:10:16.501Z,30.0100
2022-12-08T01:10:27.657Z,30.0270
2022-12-08T01:10:38.874Z,30.0320
2022-12-08T01:10:50.094Z,30.0370
2022-12-08T01:11:01.268Z,30.0370
2022-12-08T01:11:12.469Z,30.0270
2022-12-08T01:11:23.670Z,30.0160
2022-12-08T01:11:34.739Z,30.0000
2022-12-08T01:11:45.825Z,30.0210
2022-12-08T01:11:56.950Z,30.0210
2022-12-08T01:12:08.148Z,30.0370
2022-12-08T01:12:19.368Z,30.0440
2022-12-08T01:12:30.564Z,30.0480
2022-12-08T01:12:41.753Z,30.0330
2022-12-08T01:12:52.958Z,30.0120
2022-12-08T01:13:04.137Z,29.9710
2022-12-08T01:13:15.349Z,29.9440
2022-12-08T01:13:26.537Z,29.9600
2022-12-08T01:13:37.619Z,29.9820
2022-12-08T01:13:48.687Z,30.0000
2022-12-08T01:13:59.829Z,30.0210
2022-12-08T01:14:11.023Z,30.0370
2022-12-08T01:14:22.229Z,30.0540
2022-12-08T01:14:33.417Z,30.0540
2022-12-08T01:14:44.631Z,30.0540
2022-12-08T01:15:00.631Z,30.0540
2022-12-08T01:15:12.796Z,30.2020
2022-12-08T01:15:23.978Z,30.1780
2022-12-08T01:15:35.025Z,30.1170
2022-12-08T01:15:46.089Z,30.0850
2022-12-08T01:15:57.317Z,30.0640
2022-12-08T01:16:08.602Z,30.0590
2022-12-08T01:16:19.752Z,30.0870
2022-12-08T01:16:30.940Z,30.0640
2022-12-08T01:16:42.251Z,30.0430
2022-12-08T01:16:53.786Z,30.0480
2022-12-08T01:17:04.965Z,30.0270
2022-12-08T01:17:16.036Z,30.0320
2022-12-08T01:17:27.189Z,30.0320
2022-12-08T01:17:38.259Z,30.0540
2022-12-08T01:17:49.332Z,30.0700
2022-12-08T01:18:00.467Z,30.0640
2022-12-08T01:18:11.665Z,30.0810
2022-12-08T01:18:22.871Z,30.0640
2022-12-08T01:18:34.067Z,30.0590
2022-12-08T01:18:45.128Z,30.0700
2022-12-08T01:18:56.194Z,30.0590
2022-12-08T01:19:07.338Z,30.0540
2022-12-08T01:19:18.557Z,30.0590
2022-12-08T01:19:29.744Z,30.0700
2022-12-08T01:19:40.950Z,30.0750
2022-12-08T01:19:52.017Z,30.0980
2022-12-08T01:20:03.584Z,30.0980
2022-12-08T01:20:14.898Z,30.1200
2022-12-08T01:20:26.081Z,30.1250
2022-12-08T01:20:37.277Z,30.1250
2022-12-08T01:20:48.319Z,30.1090
2022-12-08T01:20:59.518Z,30.0980
2022-12-08T01:21:10.595Z,30.1040
2022-12-08T01:21:21.745Z,30.0980
2022-12-08T01:21:32.938Z,30.1040
2022-12-08T01:21:44.150Z,30.1090
2022-12-08T01:21:55.216Z,30.1310
2022-12-08T01:22:06.268Z,30.1250
2022-12-08T01:22:17.429Z,30.1090
2022-12-08T01:22:28.623Z,30.1170
2022-12-08T01:22:39.667Z,30.1060
2022-12-08T01:22:50.741Z,30.0950
2022-12-08T01:23:01.817Z,30.0790
2022-12-08T01:23:12.888Z,30.0950
2022-12-08T01:23:23.987Z,30.1240
2022-12-08T01:23:35.185Z,30.1240
2022-12-08T01:23:46.388Z,30.0950
2022-12-08T01:23:57.578Z,30.0740
2022-12-08T01:24:08.655Z,30.0740
2022-12-08T01:24:19.724Z,30.0790
2022-12-08T01:24:30.861Z,30.0740
2022-12-08T01:24:42.066Z,30.0690
2022-12-08T01:24:53.268Z,30.0900
2022-12-08T01:25:04.467Z,30.1010
2022-12-08T01:25:15.668Z,30.1120
2022-12-08T01:25:26.866Z,30.1170
2022-12-08T01:25:38.072Z,30.1170
2022-12-08T01:25:49.259Z,30.1510
2022-12-08T01:26:00.500Z,30.1450
2022-12-08T01:26:11.567Z,30.1780
2022-12-08T01:26:22.636Z,30.1890
2022-12-08T01:26:33.689Z,30.1830
2022-12-08T01:26:44.771Z,30.1670
2022-12-08T01:26:55.824Z,30.1510
2022-12-08T01:27:07.028Z,30.1470
2022-12-08T01:27:18.099Z,30.1420
2022-12-08T01:27:29.179Z,30.1310
2022-12-08T01:27:40.338Z,30.1310
2022-12-08T01:27:51.519Z,30.1360
2022-12-08T01:28:02.705Z,30.1310
2022-12-08T01:28:13.908Z,30.1310
2022-12-08T01:28:24.986Z,30.1250
2022-12-08T01:28:36.058Z,30.1420
2022-12-08T01:28:47.187Z,30.1630
2022-12-08T01:28:58.388Z,30.1580
2022-12-08T01:29:09.584Z,30.1790
2022-12-08T01:29:20.697Z,30.1860
2022-12-08T01:29:31.777Z,30.1630
2022-12-08T01:29:42.867Z,30.1730
2022-12-08T01:29:54.064Z,30.1730
2022-12-08T01:30:05.232Z,30.1780
2022-12-08T01:30:16.508Z,30.1730
2022-12-08T01:30:27.638Z,30.1830
2022-12-08T01:30:38.878Z,30.1730
2022-12-08T01:30:50.160Z,30.1620
2022-12-08T01:31:01.333Z,30.1890
2022-12-08T01:31:12.548Z,30.2050
2022-12-08T01:31:23.728Z,30.2050
2022-12-08T01:31:34.907Z,30.2000
2022-12-08T01:31:46.067Z,30.1940
2022-12-08T01:31:57.293Z,30.1830
2022-12-08T01:32:08.465Z,30.2000
2022-12-08T01:32:19.671Z,30.2050
2022-12-08T01:32:30.728Z,30.2160
2022-12-08T01:32:41.804Z,30.2100
2022-12-08T01:32:52.944Z,30.2000
2022-12-08T01:33:04.158Z,30.1780
2022-12-08T01:33:15.345Z,30.2000
2022-12-08T01:33:26.506Z,30.2000
2022-12-08T01:33:37.568Z,30.2050
2022-12-08T01:33:48.629Z,30.1890
2022-12-08T01:33:59.697Z,30.2000
2022-12-08T01:34:10.774Z,30.2100
2022-12-08T01:34:21.897Z,30.2230
2022-12-08T01:34:33.107Z,30.2280
2022-12-08T01:34:44.177Z,30.2160
2022-12-08T01:34:55.238Z,30.1730
2022-12-08T01:35:06.384Z,30.1830
2022-12-08T01:35:17.590Z,30.1830
2022-12-08T01:35:28.783Z,30.1940
2022-12-08T01:35:39.989Z,30.2100
2022-12-08T01:35:51.189Z,30.2230
2022-12-08T01:36:02.472Z,30.2100
2022-12-08T01:36:13.599Z,30.2100
2022-12-08T01:36:24.788Z,30.1940
2022-12-08T01:36:35.987Z,30.1890
2022-12-08T01:36:47.190Z,30.1940
2022-12-08T01:36:58.378Z,30.2100
2022-12-08T01:37:09.594Z,30.2160
2022-12-08T01:37:20.791Z,30.2330
2022-12-08T01:37:31.988Z,30.2390
2022-12-08T01:37:43.185Z,30.2330
2022-12-08T01:37:54.226Z,30.2100
2022-12-08T01:38:05.297Z,30.2000
2022-12-08T01:38:16.470Z,30.1940
2022-12-08T01:38:27.545Z,30.1830
2022-12-08T01:38:38.628Z,30.1940
2022-12-08T01:38:49.744Z,30.2050
2022-12-08T01:39:00.950Z,30.2230
2022-12-08T01:39:12.145Z,30.2390
2022-12-08T01:39:23.347Z,30.2160
2022-12-08T01:39:34.415Z,30.2140
2022-12-08T01:39:45.484Z,30.2090
2022-12-08T01:39:56.624Z,30.1930
2022-12-08T01:40:07.919Z,30.2200
2022-12-08T01:40:18.968Z,30.2310
2022-12-08T01:40:30.034Z,30.2250
2022-12-08T01:40:41.090Z,30.2090
2022-12-08T01:40:52.310Z,30.2090
2022-12-08T01:41:03.548Z,30.2250
2022-12-08T01:41:14.710Z,30.2470
2022-12-08T01:41:25.775Z,30.2520
2022-12-08T01:41:36.839Z,30.2700
2022-12-08T01:41:47.897Z,30.2810
2022-12-08T01:41:58.959Z,30.2520
2022-12-08T01:42:10.064Z,30.2360
2022-12-08T01:42:21.268Z,30.2140
2022-12-08T01:42:32.468Z,30.2090
2022-12-08T01:42:43.667Z,30.1770
2022-12-08T01:42:54.778Z,30.1660
2022-12-08T01:43:05.914Z,30.1600
2022-12-08T01:43:16.998Z,30.1480
2022-12-08T01:43:28.149Z,30.1370
2022-12-08T01:43:39.346Z,30.1660
2022-12-08T01:43:50.548Z,30.1600
2022-12-08T01:44:01.794Z,30.1770
2022-12-08T01:44:12.948Z,30.1870
2022-12-08T01:44:24.145Z,30.1870
2022-12-08T01:44:35.348Z,30.1870
2022-12-08T01:44:46.553Z,30.1870
2022-12-08T01:44:57.617Z,30.1940
2022-12-08T01:45:08.694Z,30.1890
2022-12-08T01:45:19.827Z,30.1980
2022-12-08T01:45:31.043Z,30.2040
2022-12-08T01:45:43.174Z,30.2040
2022-12-08T01:45:54.457Z,30.2250
2022-12-08T01:46:05.756Z,30.2040
2022-12-08T01:46:16.895Z,30.1870
2022-12-08T01:46:28.127Z,30.1930
2022-12-08T01:46:39.293Z,30.1770
2022-12-08T01:46:50.374Z,30.1710
2022-12-08T01:47:01.602Z,30.1600
2022-12-08T01:47:12.787Z,30.1600
2022-12-08T01:47:23.984Z,30.1600
2022-12-08T01:47:35.265Z,30.1600
2022-12-08T01:47:46.535Z,30.1710
2022-12-08T01:47:57.693Z,30.1710
2022-12-08T01:48:08.864Z,30.1980
2022-12-08T01:48:20.050Z,30.1820
2022-12-08T01:48:31.190Z,30.1870
2022-12-08T01:48:42.388Z,30.1870
2022-12-08T01:48:53.462Z,30.2040
2022-12-08T01:49:04.527Z,30.2090
2022-12-08T01:49:15.666Z,30.2140
2022-12-08T01:49:26.708Z,30.2090
2022-12-08T01:49:37.764Z,30.1930
2022-12-08T01:49:48.974Z,30.2140
2022-12-08T01:50:00.134Z,30.2360
2022-12-08T01:50:11.347Z,30.2640
2022-12-08T01:50:22.544Z,30.2750
2022-12-08T01:50:33.668Z,30.2520
2022-12-08T01:50:44.718Z,30.2100
2022-12-08T01:50:55.825Z,30.2000
2022-12-08T01:51:06.915Z,30.2160
2022-12-08T01:51:17.975Z,30.1940
2022-12-08T01:51:29.108Z,30.2360
2022-12-08T01:51:40.308Z,30.2590
2022-12-08T01:51:51.514Z,30.2700
2022-12-08T01:52:02.577Z,30.2590
2022-12-08T01:52:13.630Z,30.2700
2022-12-08T01:52:24.787Z,30.2590
2022-12-08T01:52:35.984Z,30.2520
2022-12-08T01:52:47.179Z,30.2470
2022-12-08T01:52:58.394Z,30.2700
2022-12-08T01:53:09.578Z,30.2810
2022-12-08T01:53:20.787Z,30.2700
2022-12-08T01:53:31.985Z,30.2810
2022-12-08T01:53:43.025Z,30.2860
2022-12-08T01:53:54.067Z,30.2810
2022-12-08T01:54:05.268Z,30.2310
2022-12-08T01:54:16.341Z,30.2200
2022-12-08T01:54:27.409Z,30.2310
2022-12-08T01:54:38.509Z,30.2640
2022-12-08T01:54:49.748Z,30.2700
2022-12-08T01:55:00.939Z,30.2640
2022-12-08T01:55:12.149Z,30.2810
2022-12-08T01:55:23.232Z,30.2910
2022-12-08T01:55:34.315Z,30.2810
2022-12-08T01:55:45.425Z,30.2970
2022-12-08T01:55:56.513Z,30.3020
2022-12-08T01:56:07.625Z,30.3130
2022-12-08T01:56:18.792Z,30.3080
2022-12-08T01:56:29.974Z,30.2910
2022-12-08T01:56:41.192Z,30.2970
2022-12-08T01:56:52.232Z,30.3080
2022-12-08T01:57:03.280Z,30.3080
2022-12-08T01:57:14.474Z,30.3240
2022-12-08T01:57:25.673Z,30.3190
2022-12-08T01:57:36.853Z,30.3240
2022-12-08T01:57:48.072Z,30.3510
2022-12-08T01:57:59.135Z,30.3350
2022-12-08T01:58:10.361Z,30.3630
2022-12-08T01:58:21.556Z,30.3460
2022-12-08T01:58:32.757Z,30.3510
2022-12-08T01:58:43.954Z,30.3400
2022-12-08T01:58:55.155Z,30.3400
2022-12-08T01:59:06.359Z,30.3130
2022-12-08T01:59:17.430Z,30.3080
2022-12-08T01:59:28.503Z,30.3190
2022-12-08T01:59:39.644Z,30.3510
2022-12-08T01:59:50.845Z,30.3580
2022-12-08T02:00:02.723Z,30.3690
2022-12-08T02:00:14.239Z,30.3960
2022-12-08T02:00:25.280Z,30.3740
2022-12-08T02:00:36.364Z,30.3580
2022-12-08T02:00:47.474Z,30.3510
2022-12-08T02:00:58.586Z,30.3400
2022-12-08T02:01:09.779Z,30.3350
2022-12-08T02:01:21.152Z,30.3240
2022-12-08T02:01:32.343Z,30.3350
2022-12-08T02:01:43.528Z,30.3290
2022-12-08T02:01:54.823Z,30.3350
2022-12-08T02:02:06.025Z,30.3580
2022-12-08T02:02:17.174Z,30.3740
2022-12-08T02:02:28.330Z,30.3400
2022-12-08T02:02:39.540Z,30.3020
2022-12-08T02:02:50.614Z,30.3400
2022-12-08T02:03:01.732Z,30.3350
2022-12-08T02:03:12.840Z,30.3290
2022-12-08T02:03:23.946Z,30.3130
2022-12-08T02:03:35.006Z,30.3290
2022-12-08T02:03:46.074Z,30.3290
2022-12-08T02:03:57.237Z,30.3130
2022-12-08T02:04:08.418Z,30.3190
2022-12-08T02:04:19.626Z,30.3460
2022-12-08T02:04:30.830Z,30.3460
2022-12-08T02:04:42.027Z,30.3580
2022-12-08T02:04:53.233Z,30.3630
2022-12-08T02:05:04.305Z,30.3580
2022-12-08T02:05:15.357Z,30.3580
2022-12-08T02:05:26.499Z,30.3580
2022-12-08T02:05:37.709Z,30.3510
2022-12-08T02:05:48.905Z,30.3690
2022-12-08T02:06:00.098Z,30.3850
2022-12-08T02:06:11.358Z,30.3850
2022-12-08T02:06:22.409Z,30.4010
2022-12-08T02:06:33.489Z,30.4060
2022-12-08T02:06:44.583Z,30.3960
2022-12-08T02:06:55.791Z,30.3690
2022-12-08T02:07:08.289Z,30.3630
2022-12-08T02:07:19.522Z,30.3960
2022-12-08T02:07:30.681Z,30.3910
2022-12-08T02:07:41.880Z,30.3900
2022-12-08T02:07:53.094Z,30.3960
2022-12-08T02:08:04.271Z,30.4010
2022-12-08T02:08:15.547Z,30.3960
2022-12-08T02:08:26.836Z,30.3960
2022-12-08T02:08:37.905Z,30.3900
2022-12-08T02:08:49.059Z,30.3900
2022-12-08T02:09:00.270Z,30.3790
2022-12-08T02:09:11.339Z,30.3740
2022-12-08T02:09:22.416Z,30.3510
2022-12-08T02:09:33.550Z,30.3460
2022-12-08T02:09:44.748Z,30.3350
2022-12-08T02:09:55.945Z,30.3460
2022-12-08T02:10:07.274Z,30.3290
2022-12-08T02:10:18.379Z,30.3510
2022-12-08T02:10:29.549Z,30.3460
2022-12-08T02:10:40.747Z,30.3630
2022-12-08T02:10:51.950Z,30.3630
2022-12-08T02:11:03.151Z,30.3740
2022-12-08T02:11:14.388Z,30.3790
2022-12-08T02:11:25.465Z,30.3850
2022-12-08T02:11:36.538Z,30.3850
2022-12-08T02:11:47.630Z,30.3850
2022-12-08T02:11:58.711Z,30.3790
2022-12-08T02:12:09.780Z,30.3900
2022-12-08T02:12:20.910Z,30.4010
2022-12-08T02:12:31.985Z,30.3790
2022-12-08T02:12:43.046Z,30.3630
2022-12-08T02:12:54.185Z,30.3400
2022-12-08T02:13:05.389Z,30.3240
2022-12-08T02:13:16.585Z,30.3240
2022-12-08T02:13:27.796Z,30.3080
2022-12-08T02:13:38.985Z,30.3080
2022-12-08T02:13:50.189Z,30.3130
2022-12-08T02:14:01.385Z,30.3190
2022-12-08T02:14:12.639Z,30.3130
2022-12-08T02:14:23.799Z,30.3190
2022-12-08T02:14:34.909Z,30.3510
2022-12-08T02:14:46.010Z,30.3630
2022-12-08T02:15:01.840Z,30.3580
2022-12-08T02:15:14.025Z,30.4740
2022-12-08T02:15:25.229Z,30.4280
2022-12-08T02:15:36.361Z,30.3750
2022-12-08T02:15:47.704Z,30.3590